Time;durP1;ratioP1;P1;durP2;ratioP2;P2;SDS_P1;SDS_P2;PMS_P1;PMS_P2;Temp;Humidity;BMP_temperature;BMP_pressure;BME280_temperature;BME280_humidity;BME280_pressure;Samples;Min_cycle;Max_cycle;Signal;HPM_P1;HPM_P2
2023/05/24 00:01:06;;;;;;;18.55;5.28;;;9.50;99.90;;;;;;5036141;28;20045;-53
2023/05/24 00:03:33;;;;;;;20.73;6.68;;;9.50;99.90;;;;;;5053030;28;20086;-52
2023/05/24 00:05:59;;;;;;;16.75;4.93;;;9.50;99.90;;;;;;5053518;28;20028;-52
2023/05/24 00:08:25;;;;;;;20.05;5.78;;;9.50;99.90;;;;;;5054344;28;20047;-57
2023/05/24 00:10:51;;;;;;;19.45;5.38;;;9.50;99.90;;;;;;5053058;28;20032;-54
2023/05/24 00:13:17;;;;;;;17.95;4.97;;;9.50;99.90;;;;;;5035812;28;20036;-54
2023/05/24 00:15:43;;;;;;;17.02;4.90;;;9.50;99.90;;;;;;5054542;28;20024;-52
2023/05/24 00:18:08;;;;;;;14.95;5.72;;;9.50;99.90;;;;;;5055046;28;20029;-56
2023/05/24 00:20:34;;;;;;;18.05;6.05;;;9.50;99.90;;;;;;5054416;28;20020;-53
2023/05/24 00:23:00;;;;;;;15.07;5.10;;;9.50;99.90;;;;;;5054410;28;20078;-57
2023/05/24 00:25:25;;;;;;;21.05;5.78;;;9.50;99.90;;;;;;5053761;28;20054;-53
2023/05/24 00:27:51;;;;;;;16.45;5.53;;;9.50;99.90;;;;;;5054383;28;20029;-54
2023/05/24 00:30:16;;;;;;;24.30;5.82;;;9.50;99.90;;;;;;5035641;28;20017;-55
2023/05/24 00:32:42;;;;;;;17.52;4.75;;;9.50;99.90;;;;;;5053719;28;20029;-58
2023/05/24 00:35:07;;;;;;;21.35;5.93;;;9.50;99.90;;;;;;5052165;28;20029;-52
2023/05/24 00:37:33;;;;;;;27.92;6.03;;;9.50;99.90;;;;;;5052017;28;20032;-56
2023/05/24 00:39:59;;;;;;;22.58;5.65;;;9.50;99.90;;;;;;5053892;28;20483;-55
2023/05/24 00:42:24;;;;;;;18.65;5.47;;;9.50;99.90;;;;;;5054946;28;20334;-53
2023/05/24 00:44:50;;;;;;;22.23;4.90;;;9.50;99.90;;;;;;5053659;28;20141;-54
2023/05/24 00:47:16;;;;;;;19.45;5.60;;;9.50;99.90;;;;;;5055000;28;20305;-53
2023/05/24 00:49:41;;;;;;;20.75;5.28;;;9.50;99.90;;;;;;5053325;28;20025;-53
2023/05/24 00:52:10;;;;;;;16.45;5.38;;;9.50;99.90;;;;;;5054037;28;20403;-54
2023/05/24 00:54:39;;;;;;;22.13;5.28;;;9.50;99.90;;;;;;5053308;28;20460;-56
2023/05/24 00:57:12;;;;;;;23.10;5.72;;;9.50;99.90;;;;;;5036684;28;20028;-52
2023/05/24 00:59:39;;;;;;;19.65;5.03;;;9.60;99.90;;;;;;5046766;28;20159;-56
2023/05/24 01:02:04;;;;;;;20.42;6.95;;;9.50;99.90;;;;;;5050757;28;20149;-54
2023/05/24 01:04:31;;;;;;;22.73;5.85;;;9.50;99.90;;;;;;5034148;28;20580;-53
2023/05/24 01:07:20;;;;;;;23.75;4.82;;;9.50;99.90;;;;;;5053420;28;20551;-55
2023/05/24 01:10:23;;;;;;;16.40;6.47;;;9.60;99.90;;;;;;5051661;28;20522;-54
2023/05/24 01:12:58;;;;;;;21.38;5.63;;;9.60;99.90;;;;;;5054461;28;20310;-53
2023/05/24 01:15:36;;;;;;;18.77;5.45;;;9.60;99.90;;;;;;5057728;28;20032;-54
2023/05/24 01:18:25;;;;;;;18.77;5.20;;;9.50;99.90;;;;;;5057656;28;20029;-57
2023/05/24 01:21:14;;;;;;;17.60;5.38;;;9.60;99.90;;;;;;5057268;28;20060;-55
2023/05/24 01:23:46;;;;;;;13.30;6.05;;;9.60;99.90;;;;;;5056449;28;20425;-56
2023/05/24 01:26:17;;;;;;;19.38;6.00;;;9.60;99.90;;;;;;5056089;28;20336;-54
2023/05/24 01:28:45;;;;;;;18.23;4.18;;;9.60;99.90;;;;;;5057794;28;20052;-54
2023/05/24 01:31:13;;;;;;;20.60;5.55;;;9.60;99.90;;;;;;5057481;28;20128;-54
2023/05/24 01:33:42;;;;;;;23.38;5.57;;;9.60;99.90;;;;;;5058171;28;20567;-52
2023/05/24 01:36:08;;;;;;;16.60;4.25;;;9.60;99.90;;;;;;5057196;28;20417;-54
2023/05/24 01:38:33;;;;;;;24.95;5.22;;;9.60;99.90;;;;;;5057286;28;20526;-54
2023/05/24 01:41:14;;;;;;;18.98;5.25;;;9.60;99.90;;;;;;5056731;28;20041;-52
2023/05/24 01:43:45;;;;;;;23.80;5.88;;;9.60;99.90;;;;;;5039161;28;20029;-55
2023/05/24 01:46:37;;;;;;;24.58;6.47;;;9.60;99.90;;;;;;5057540;28;20028;-54
2023/05/24 01:49:06;;;;;;;24.35;5.90;;;9.60;99.90;;;;;;5051738;28;20120;-57
2023/05/24 01:51:48;;;;;;;20.20;6.00;;;9.60;99.90;;;;;;5056039;28;20017;-54
2023/05/24 01:54:19;;;;;;;22.52;5.65;;;9.60;99.90;;;;;;5054755;28;20059;-51
2023/05/24 01:56:46;;;;;;;19.58;4.80;;;9.60;99.90;;;;;;5057591;28;20125;-54
2023/05/24 01:59:15;;;;;;;13.68;5.00;;;9.60;99.90;;;;;;5058083;28;20050;-53
2023/05/24 02:01:41;;;;;;;19.58;5.82;;;9.60;99.90;;;;;;5053260;28;20498;-53
2023/05/24 02:04:07;;;;;;;23.00;5.43;;;9.60;99.90;;;;;;5057934;28;20065;-56
2023/05/24 02:06:32;;;;;;;18.95;5.25;;;9.60;99.90;;;;;;5056716;28;20406;-54
2023/05/24 02:08:58;;;;;;;17.20;5.30;;;9.60;99.90;;;;;;5056576;28;20024;-56
2023/05/24 02:11:23;;;;;;;12.80;4.65;;;9.60;99.90;;;;;;5056573;28;20036;-56
2023/05/24 02:13:49;;;;;;;17.50;5.22;;;9.60;99.90;;;;;;5057061;28;20486;-55
2023/05/24 02:16:16;;;;;;;18.98;6.90;;;9.60;99.90;;;;;;5058019;28;20129;-53
2023/05/24 02:18:43;;;;;;;22.70;6.03;;;9.60;99.90;;;;;;5054800;28;20317;-54
2023/05/24 02:21:09;;;;;;;18.35;5.88;;;9.60;99.90;;;;;;5056996;28;20021;-57
2023/05/24 02:23:35;;;;;;;13.48;5.20;;;9.60;99.90;;;;;;5056985;28;20028;-55
2023/05/24 02:26:00;;;;;;;20.42;6.00;;;9.60;99.90;;;;;;5054767;28;20024;-51
2023/05/24 02:28:28;;;;;;;23.08;6.03;;;9.60;99.90;;;;;;5037741;28;20021;-53
2023/05/24 02:30:54;;;;;;;20.48;5.72;;;9.60;99.90;;;;;;5055630;28;20486;-50
2023/05/24 02:33:20;;;;;;;23.55;5.90;;;9.60;99.90;;;;;;5057139;28;20065;-56
2023/05/24 02:35:45;;;;;;;24.88;5.57;;;9.60;99.90;;;;;;5055668;28;20025;-53
2023/05/24 02:38:11;;;;;;;26.55;5.95;;;9.60;99.90;;;;;;5056531;28;20033;-54
2023/05/24 02:40:36;;;;;;;19.08;5.57;;;9.70;99.90;;;;;;5057168;28;20040;-53
2023/05/24 02:43:02;;;;;;;18.58;5.47;;;9.70;99.90;;;;;;5055498;28;20502;-56
2023/05/24 02:45:27;;;;;;;17.02;4.55;;;9.60;99.90;;;;;;5056225;28;20029;-51
2023/05/24 02:47:53;;;;;;;19.15;5.50;;;9.60;99.90;;;;;;5056811;28;20036;-54
2023/05/24 02:50:18;;;;;;;23.23;6.78;;;9.60;99.90;;;;;;5056756;28;20048;-53
2023/05/24 02:52:44;;;;;;;16.88;6.22;;;9.70;99.90;;;;;;5055294;28;20108;-55
2023/05/24 02:55:10;;;;;;;16.90;5.43;;;9.70;99.90;;;;;;5056613;28;20515;-53
2023/05/24 02:57:36;;;;;;;20.83;5.95;;;9.70;99.90;;;;;;5054520;28;20039;-53
2023/05/24 03:00:05;;;;;;;24.90;5.72;;;9.70;99.90;;;;;;5054895;28;20023;-52
2023/05/24 03:02:32;;;;;;;18.98;5.93;;;9.70;99.90;;;;;;5055949;28;20040;-57
2023/05/24 03:04:58;;;;;;;13.40;4.55;;;9.70;99.90;;;;;;5039211;28;20028;-54
2023/05/24 03:07:24;;;;;;;20.15;4.88;;;9.70;99.90;;;;;;5055772;28;20241;-52
2023/05/24 03:09:49;;;;;;;25.45;6.53;;;9.70;99.90;;;;;;5055300;28;20021;-53
2023/05/24 03:12:15;;;;;;;21.70;6.28;;;9.70;99.90;;;;;;5055609;28;20032;-56
2023/05/24 03:14:40;;;;;;;18.77;6.00;;;9.70;99.90;;;;;;5055384;28;20036;-54
2023/05/24 03:17:06;;;;;;;14.02;5.68;;;9.70;99.90;;;;;;5056463;28;20044;-55
2023/05/24 03:19:31;;;;;;;14.65;5.32;;;9.70;99.90;;;;;;5056782;28;20036;-53
2023/05/24 03:21:57;;;;;;;21.88;5.57;;;9.70;99.90;;;;;;5038456;28;20074;-52
2023/05/24 03:24:24;;;;;;;23.15;6.72;;;9.70;99.90;;;;;;5055492;28;20063;-54
2023/05/24 03:26:50;;;;;;;22.80;6.32;;;9.70;99.90;;;;;;5037657;28;20202;-54
2023/05/24 03:29:16;;;;;;;18.65;4.75;;;9.70;99.90;;;;;;5054513;28;20554;-52
2023/05/24 03:31:41;;;;;;;17.35;5.70;;;9.70;99.90;;;;;;5054618;28;20032;-55
2023/05/24 03:34:07;;;;;;;23.40;7.32;;;9.70;99.90;;;;;;5038218;28;20025;-53
2023/05/24 03:36:32;;;;;;;20.10;6.43;;;9.70;99.90;;;;;;5054951;28;20364;-57
2023/05/24 03:38:58;;;;;;;17.73;5.45;;;9.70;99.90;;;;;;5054334;28;20021;-54
2023/05/24 03:41:26;;;;;;;20.50;6.53;;;9.70;99.90;;;;;;5055158;28;20025;-51
2023/05/24 03:43:52;;;;;;;25.10;7.10;;;9.70;99.90;;;;;;5054591;28;20021;-54
2023/05/24 03:46:17;;;;;;;23.95;5.40;;;9.70;99.90;;;;;;5054673;28;20329;-59
2023/05/24 03:48:43;;;;;;;19.13;6.07;;;9.70;99.90;;;;;;5053647;28;20020;-55
2023/05/24 03:51:08;;;;;;;18.92;6.38;;;9.70;99.90;;;;;;5054722;28;20387;-54
2023/05/24 03:53:34;;;;;;;14.60;5.20;;;9.80;99.90;;;;;;5054401;28;20544;-53
2023/05/24 03:55:59;;;;;;;21.85;5.32;;;9.80;99.90;;;;;;5054213;28;20047;-50
2023/05/24 03:58:25;;;;;;;21.30;5.60;;;9.80;99.90;;;;;;5054107;28;20032;-53
2023/05/24 04:00:51;;;;;;;23.60;6.75;;;9.80;99.90;;;;;;5053176;28;20054;-52
2023/05/24 04:03:18;;;;;;;19.15;6.63;;;9.80;99.90;;;;;;5053268;28;20028;-55
2023/05/24 04:05:44;;;;;;;19.52;5.82;;;9.80;99.90;;;;;;5054394;28;20028;-50
2023/05/24 04:08:11;;;;;;;16.65;6.32;;;9.80;99.90;;;;;;5035440;28;20036;-54
2023/05/24 04:10:36;;;;;;;25.00;5.80;;;9.80;99.90;;;;;;5053172;28;20023;-58
2023/05/24 04:13:02;;;;;;;18.00;5.88;;;9.80;99.90;;;;;;5053723;28;20029;-58
2023/05/24 04:15:28;;;;;;;26.48;6.85;;;9.80;99.90;;;;;;5053856;28;20028;-56
2023/05/24 04:17:54;;;;;;;21.98;6.05;;;9.80;99.90;;;;;;5053178;28;20025;-56
2023/05/24 04:20:24;;;;;;;23.50;6.18;;;9.70;99.90;;;;;;5054114;28;20605;-57
2023/05/24 04:22:50;;;;;;;21.95;5.57;;;9.70;99.90;;;;;;5053348;28;20139;-58
2023/05/24 04:25:16;;;;;;;18.45;6.22;;;9.70;99.90;;;;;;5052950;28;20462;-56
2023/05/24 04:27:41;;;;;;;20.13;6.82;;;9.70;99.90;;;;;;5051637;28;20036;-56
2023/05/24 04:30:08;;;;;;;21.30;6.55;;;9.80;99.90;;;;;;5052152;28;20021;-56
2023/05/24 04:32:33;;;;;;;24.00;5.95;;;9.80;99.90;;;;;;5035885;28;20107;-58
2023/05/24 04:35:01;;;;;;;24.48;6.03;;;9.70;99.90;;;;;;5035380;28;20116;-55
2023/05/24 04:37:28;;;;;;;21.85;5.95;;;9.70;99.90;;;;;;5076993;23;20045;-51
2023/05/24 04:39:54;;;;;;;29.60;6.80;;;9.70;99.90;;;;;;5053419;28;20399;-50
2023/05/24 04:42:19;;;;;;;25.85;6.70;;;9.70;99.90;;;;;;5053352;28;20033;-50
2023/05/24 04:44:45;;;;;;;19.20;6.03;;;9.70;99.90;;;;;;5054389;28;20075;-50
2023/05/24 04:47:11;;;;;;;16.45;5.90;;;9.80;99.90;;;;;;5047855;28;20029;-51
2023/05/24 04:49:37;;;;;;;20.60;6.82;;;9.80;99.90;;;;;;5034889;28;20082;-52
2023/05/24 04:52:04;;;;;;;15.85;6.07;;;9.80;99.90;;;;;;5034428;28;20466;-49
2023/05/24 04:54:29;;;;;;;23.67;6.65;;;9.80;99.90;;;;;;5036118;28;20021;-49
2023/05/24 04:56:55;;;;;;;19.67;6.15;;;9.80;99.90;;;;;;5036244;28;20039;-50
2023/05/24 04:59:20;;;;;;;11.85;5.35;;;9.90;99.90;;;;;;5039784;28;20029;-49
2023/05/24 05:01:47;;;;;;;17.38;5.47;;;9.90;99.90;;;;;;5035765;28;20128;-52
2023/05/24 05:04:12;;;;;;;23.67;6.45;;;9.90;99.90;;;;;;5035149;28;20446;-52
2023/05/24 05:06:39;;;;;;;20.05;6.93;;;9.90;99.90;;;;;;5035574;28;20044;-52
2023/05/24 05:09:08;;;;;;;23.70;6.70;;;9.90;99.90;;;;;;5035970;28;20396;-52
2023/05/24 05:11:34;;;;;;;23.92;6.80;;;9.90;99.90;;;;;;5035647;28;20022;-49
2023/05/24 05:14:00;;;;;;;17.88;5.32;;;10.00;99.90;;;;;;5038144;28;20322;-50
2023/05/24 05:16:25;;;;;;;18.27;5.50;;;10.00;99.90;;;;;;5033853;28;20069;-50
2023/05/24 05:18:51;;;;;;;22.35;7.35;;;10.00;99.90;;;;;;5034325;28;20612;-50
2023/05/24 05:21:17;;;;;;;25.92;6.68;;;10.10;99.90;;;;;;5035288;28;20029;-50
2023/05/24 05:23:42;;;;;;;25.00;6.97;;;10.20;99.90;;;;;;5036539;28;20093;-49
2023/05/24 05:26:08;;;;;;;23.92;7.60;;;10.20;99.90;;;;;;5035509;28;20041;-50
2023/05/24 05:28:33;;;;;;;22.80;6.53;;;10.20;99.90;;;;;;5034254;28;20033;-50
2023/05/24 05:30:59;;;;;;;18.02;6.15;;;10.20;99.90;;;;;;5037698;28;20446;-51
2023/05/24 05:33:24;;;;;;;14.90;5.40;;;10.30;99.90;;;;;;5038423;28;20621;-50
2023/05/24 05:35:50;;;;;;;27.45;7.22;;;10.30;99.90;;;;;;5034972;28;20026;-49
2023/05/24 05:38:16;;;;;;;18.10;5.30;;;10.40;99.90;;;;;;5033708;28;20040;-51
2023/05/24 05:40:41;;;;;;;24.08;6.40;;;10.40;99.90;;;;;;5037372;28;20108;-49
2023/05/24 05:43:08;;;;;;;24.05;6.55;;;10.40;99.90;;;;;;5035075;28;20111;-54
2023/05/24 05:45:34;;;;;;;19.10;7.18;;;10.50;99.90;;;;;;5034568;28;20392;-54
2023/05/24 05:47:59;;;;;;;20.90;6.03;;;10.40;99.90;;;;;;5037494;28;20029;-49
2023/05/24 05:50:25;;;;;;;22.00;6.53;;;10.40;99.90;;;;;;5035598;28;20021;-49
2023/05/24 05:52:50;;;;;;;22.42;5.68;;;10.50;99.90;;;;;;5037886;28;20448;-51
2023/05/24 05:55:16;;;;;;;27.58;6.55;;;10.40;99.90;;;;;;5037745;28;20052;-50
2023/05/24 05:57:42;;;;;;;27.52;7.13;;;10.40;99.90;;;;;;5036179;28;20082;-51
2023/05/24 06:00:08;;;;;;;22.60;7.07;;;10.40;99.90;;;;;;5041384;28;20028;-51
2023/05/24 06:02:34;;;;;;;16.15;5.57;;;10.50;99.90;;;;;;5043460;28;20040;-51
2023/05/24 06:05:00;;;;;;;20.83;6.57;;;10.50;99.90;;;;;;5038472;28;20029;-51
2023/05/24 06:07:25;;;;;;;15.88;6.10;;;10.50;99.90;;;;;;5043773;28;20228;-50
2023/05/24 06:09:51;;;;;;;34.83;7.18;;;10.60;99.90;;;;;;5043932;28;20108;-51
2023/05/24 06:12:16;;;;;;;25.85;7.13;;;10.60;99.90;;;;;;5020484;28;20029;-50
2023/05/24 06:14:42;;;;;;;21.10;5.80;;;10.60;99.90;;;;;;5038251;28;20024;-52
2023/05/24 06:17:08;;;;;;;21.15;6.65;;;10.70;99.90;;;;;;5038662;28;20040;-50
2023/05/24 06:19:34;;;;;;;19.67;6.80;;;10.70;99.90;;;;;;5042698;28;20033;-51
2023/05/24 06:22:00;;;;;;;25.23;6.95;;;10.80;99.90;;;;;;5037402;28;20065;-50
2023/05/24 06:24:27;;;;;;;31.98;7.85;;;10.90;99.90;;;;;;5040986;28;20033;-50
2023/05/24 06:26:53;;;;;;;26.27;7.18;;;10.80;99.90;;;;;;5038592;28;20030;-53
2023/05/24 06:29:20;;;;;;;21.88;6.68;;;10.90;99.90;;;;;;5037680;28;20502;-51
2023/05/24 06:31:46;;;;;;;30.05;8.18;;;10.90;99.90;;;;;;5038813;28;20224;-53
2023/05/24 06:34:15;;;;;;;32.53;6.55;;;10.90;99.90;;;;;;5038544;28;20025;-51
2023/05/24 06:36:41;;;;;;;23.45;6.15;;;11.00;99.90;;;;;;5038915;28;20021;-53
2023/05/24 06:39:09;;;;;;;19.77;6.45;;;10.90;99.90;;;;;;5037657;28;20033;-54
2023/05/24 06:41:34;;;;;;;28.02;7.63;;;11.00;99.90;;;;;;5037914;28;20254;-50
2023/05/24 06:44:00;;;;;;;28.45;7.63;;;10.90;99.90;;;;;;5038174;28;20032;-50
2023/05/24 06:46:26;;;;;;;22.33;6.13;;;10.90;99.90;;;;;;5024626;28;20075;-55
2023/05/24 06:48:51;;;;;;;18.05;6.50;;;10.90;99.90;;;;;;5040769;28;20535;-50
2023/05/24 06:51:17;;;;;;;29.52;8.20;;;10.90;99.90;;;;;;5039099;28;20032;-55
2023/05/24 06:53:43;;;;;;;20.00;5.53;;;10.90;99.90;;;;;;5038770;28;20488;-53
2023/05/24 06:56:09;;;;;;;14.63;5.55;;;10.90;99.90;;;;;;5044013;28;20025;-55
2023/05/24 06:58:35;;;;;;;20.15;6.93;;;10.90;99.90;;;;;;5037267;28;20450;-51
2023/05/24 07:01:01;;;;;;;21.70;7.07;;;10.90;99.90;;;;;;5039890;28;20496;-53
2023/05/24 07:03:27;;;;;;;17.95;5.88;;;10.90;99.90;;;;;;5040294;28;20064;-52
2023/05/24 07:05:52;;;;;;;21.30;6.60;;;10.90;99.90;;;;;;5037063;28;20013;-49
2023/05/24 07:08:18;;;;;;;22.05;6.00;;;10.90;99.90;;;;;;5037760;28;20100;-50
2023/05/24 07:10:44;;;;;;;18.20;5.47;;;10.90;99.90;;;;;;5039998;28;20045;-57
2023/05/24 07:13:12;;;;;;;13.45;5.72;;;11.00;99.90;;;;;;5040349;28;20072;-52
2023/05/24 07:15:42;;;;;;;24.95;6.50;;;11.10;99.90;;;;;;5040346;28;20245;-54
2023/05/24 07:18:08;;;;;;;19.17;5.63;;;11.10;99.90;;;;;;5036555;28;20032;-50
2023/05/24 07:20:33;;;;;;;22.17;5.80;;;11.20;99.90;;;;;;5038879;28;20025;-50
2023/05/24 07:23:00;;;;;;;20.48;5.97;;;11.20;99.90;;;;;;5039029;28;20247;-51
2023/05/24 07:25:26;;;;;;;18.95;7.15;;;11.20;99.90;;;;;;5042026;28;20410;-52
2023/05/24 07:27:51;;;;;;;22.35;7.60;;;11.20;99.90;;;;;;5038208;28;20116;-52
2023/05/24 07:30:17;;;;;;;26.17;7.70;;;11.30;99.90;;;;;;5036613;28;20496;-52
2023/05/24 07:32:43;;;;;;;25.30;6.95;;;11.20;99.90;;;;;;5043121;28;20025;-53
2023/05/24 07:35:14;;;;;;;22.80;6.20;;;11.20;99.90;;;;;;5042406;28;20025;-52
2023/05/24 07:37:40;;;;;;;17.52;6.75;;;11.20;99.90;;;;;;5040152;28;20033;-52
2023/05/24 07:40:10;;;;;;;20.38;6.28;;;11.30;99.90;;;;;;5043228;28;20063;-53
2023/05/24 07:42:36;;;;;;;19.42;5.97;;;11.40;99.90;;;;;;5042606;28;20320;-52
2023/05/24 07:45:02;;;;;;;25.65;7.18;;;11.40;99.90;;;;;;5043476;28;20017;-51
2023/05/24 07:47:27;;;;;;;20.60;5.88;;;11.50;99.90;;;;;;5038372;28;20044;-55
2023/05/24 07:49:53;;;;;;;13.40;4.85;;;11.60;99.90;;;;;;5038110;28;20096;-52
2023/05/24 07:52:19;;;;;;;23.00;6.70;;;11.70;99.90;;;;;;5041624;28;20029;-49
2023/05/24 07:54:45;;;;;;;17.75;6.18;;;11.80;99.90;;;;;;5044810;28;20135;-54
2023/05/24 07:57:11;;;;;;;16.85;5.22;;;11.80;99.90;;;;;;5037361;28;20024;-54
2023/05/24 07:59:37;;;;;;;24.25;6.40;;;11.80;99.90;;;;;;5036814;28;20244;-54
2023/05/24 08:02:04;;;;;;;17.92;5.80;;;11.80;99.90;;;;;;5037239;28;20048;-53
2023/05/24 08:04:31;;;;;;;15.48;6.10;;;11.90;99.90;;;;;;5043727;28;20035;-52
2023/05/24 08:06:58;;;;;;;21.83;6.07;;;11.90;99.90;;;;;;5037077;28;20060;-50
2023/05/24 08:09:23;;;;;;;23.83;6.65;;;11.90;99.90;;;;;;5039237;28;20115;-51
2023/05/24 08:11:49;;;;;;;17.05;6.07;;;11.80;99.90;;;;;;5041106;28;20021;-51
2023/05/24 08:14:15;;;;;;;29.67;7.50;;;11.80;99.90;;;;;;5040934;28;20029;-51
2023/05/24 08:16:41;;;;;;;18.50;5.88;;;11.80;99.90;;;;;;5035153;28;20080;-51
2023/05/24 08:19:06;;;;;;;21.65;6.07;;;11.90;99.90;;;;;;5038897;28;20091;-50
2023/05/24 08:21:32;;;;;;;19.55;6.63;;;11.80;99.90;;;;;;5040041;28;20108;-51
2023/05/24 08:23:59;;;;;;;22.33;7.68;;;11.90;99.90;;;;;;5022175;28;20021;-51
2023/05/24 08:26:25;;;;;;;22.90;6.68;;;11.90;99.90;;;;;;5035831;28;20029;-51
2023/05/24 08:28:51;;;;;;;30.70;6.63;;;12.00;99.90;;;;;;5035207;28;20033;-50
2023/05/24 08:31:17;;;;;;;18.58;4.95;;;12.00;99.90;;;;;;5035058;28;20124;-54
2023/05/24 08:33:42;;;;;;;19.20;6.18;;;12.10;99.90;;;;;;5035168;28;20113;-53
2023/05/24 08:36:08;;;;;;;14.57;4.63;;;12.10;99.90;;;;;;5037923;28;20100;-51
2023/05/24 08:38:34;;;;;;;18.35;5.70;;;12.30;99.90;;;;;;5037144;28;20041;-54
2023/05/24 08:41:05;;;;;;;20.17;5.88;;;12.30;99.90;;;;;;5034861;28;20104;-53
2023/05/24 08:43:32;;;;;;;18.20;4.63;;;12.50;99.90;;;;;;5036049;28;20043;-53
2023/05/24 08:46:00;;;;;;;16.30;4.28;;;12.70;99.90;;;;;;5039013;28;20547;-51
2023/05/24 08:48:27;;;;;;;11.00;5.05;;;12.90;99.90;;;;;;5034488;28;20438;-52
2023/05/24 08:50:53;;;;;;;10.90;3.80;;;13.00;99.90;;;;;;5036292;28;20509;-51
2023/05/24 08:53:21;;;;;;;18.20;4.60;;;13.20;99.90;;;;;;5038489;28;20100;-51
2023/05/24 08:55:52;;;;;;;8.80;4.45;;;13.30;99.90;;;;;;5040942;28;20025;-52
2023/05/24 08:58:19;;;;;;;13.82;4.00;;;13.50;99.90;;;;;;5035387;28;20029;-53
2023/05/24 09:00:45;;;;;;;13.88;5.43;;;13.60;99.90;;;;;;5037884;28;20063;-49
2023/05/24 09:03:12;;;;;;;18.35;4.18;;;13.70;99.90;;;;;;5037668;28;20056;-52
2023/05/24 09:05:40;;;;;;;12.68;4.10;;;13.70;99.90;;;;;;5019767;28;20071;-51
2023/05/24 09:08:06;;;;;;;11.18;4.40;;;13.70;99.90;;;;;;5034561;28;20037;-52
2023/05/24 09:10:33;;;;;;;11.73;4.70;;;13.80;99.90;;;;;;5041281;28;20028;-53
2023/05/24 09:13:01;;;;;;;14.80;5.55;;;13.80;99.90;;;;;;5038773;28;20045;-53
2023/05/24 09:15:27;;;;;;;13.95;4.38;;;13.80;99.90;;;;;;5037631;28;20028;-49
2023/05/24 09:17:53;;;;;;;10.40;4.20;;;13.80;99.90;;;;;;5039844;28;20403;-50
2023/05/24 09:20:19;;;;;;;13.35;4.85;;;13.70;99.90;;;;;;5035951;28;20446;-51
2023/05/24 09:22:50;;;;;;;15.35;4.68;;;13.60;99.90;;;;;;5039897;28;20404;-51
2023/05/24 09:25:19;;;;;;;8.23;4.30;;;13.60;99.90;;;;;;5039212;28;20045;-53
2023/05/24 09:27:53;;;;;;;15.18;5.78;;;13.50;99.90;;;;;;5034166;28;20036;-54
2023/05/24 09:30:20;;;;;;;13.23;4.30;;;13.50;99.90;;;;;;5034974;28;20025;-51
2023/05/24 09:32:59;;;;;;;15.85;3.85;;;13.60;99.90;;;;;;5037031;28;20024;-52
2023/05/24 09:35:26;;;;;;;11.25;4.50;;;13.50;99.90;;;;;;5039005;28;20100;-51
2023/05/24 09:37:56;;;;;;;10.57;4.68;;;13.50;99.90;;;;;;5041432;28;20563;-55
2023/05/24 09:40:22;;;;;;;14.52;4.60;;;13.50;99.90;;;;;;5039037;28;20041;-54
2023/05/24 09:43:00;;;;;;;14.95;4.93;;;13.70;99.90;;;;;;5040993;28;20037;-56
2023/05/24 09:45:27;;;;;;;15.27;5.18;;;13.80;99.90;;;;;;5042109;28;20034;-52
2023/05/24 09:47:53;;;;;;;12.27;4.18;;;13.90;99.90;;;;;;5021201;28;20109;-53
2023/05/24 09:50:18;;;;;;;11.23;3.85;;;13.90;99.90;;;;;;5040769;28;20105;-51
2023/05/24 09:52:44;;;;;;;12.40;4.20;;;14.00;99.90;;;;;;5043470;28;20467;-50
2023/05/24 09:55:14;;;;;;;12.85;3.78;;;14.00;99.90;;;;;;5042456;28;20075;-52
2023/05/24 09:57:40;;;;;;;9.80;3.88;;;14.10;99.90;;;;;;5040990;28;20037;-54
2023/05/24 10:00:14;;;;;;;7.78;3.45;;;14.20;99.90;;;;;;5040368;28;20124;-56
2023/05/24 10:02:42;;;;;;;10.65;4.15;;;14.30;99.90;;;;;;5041103;28;20044;-51
2023/05/24 10:05:10;;;;;;;11.63;3.42;;;14.20;99.90;;;;;;5043259;28;20031;-52
2023/05/24 10:07:36;;;;;;;14.48;4.28;;;14.40;99.90;;;;;;5045951;28;20039;-50
2023/05/24 10:10:04;;;;;;;11.93;5.22;;;14.40;99.90;;;;;;5023058;28;20041;-52
2023/05/24 10:12:30;;;;;;;10.52;3.83;;;14.50;99.90;;;;;;5023368;28;20059;-54
2023/05/24 10:14:56;;;;;;;16.98;4.40;;;14.50;99.90;;;;;;5041958;28;20137;-51
2023/05/24 10:17:23;;;;;;;13.35;4.78;;;14.50;99.90;;;;;;5038154;28;20038;-52
2023/05/24 10:19:50;;;;;;;9.88;3.78;;;14.50;99.90;;;;;;5041743;28;20055;-50
2023/05/24 10:22:15;;;;;;;8.93;3.35;;;14.40;99.90;;;;;;5040905;28;20026;-54
2023/05/24 10:24:50;;;;;;;14.60;4.20;;;14.50;99.90;;;;;;5043191;28;20025;-51
2023/05/24 10:27:22;;;;;;;11.25;3.53;;;14.60;99.90;;;;;;5041202;28;20307;-49
2023/05/24 10:29:53;;;;;;;10.93;4.05;;;14.80;99.90;;;;;;5041903;28;20466;-53
2023/05/24 10:32:19;;;;;;;8.13;3.05;;;15.00;99.90;;;;;;5041915;28;20037;-54
2023/05/24 10:34:46;;;;;;;9.75;3.05;;;14.90;99.90;;;;;;5021427;28;20021;-53
2023/05/24 10:37:12;;;;;;;9.38;3.50;;;14.90;99.90;;;;;;5041264;28;20090;-52
2023/05/24 10:42:06;;;;;;;7.30;3.42;;;15.10;99.90;;;;;;5044416;28;20041;-57
2023/05/24 10:44:32;;;;;;;9.25;3.50;;;15.10;99.90;;;;;;5045882;28;20490;-55
2023/05/24 10:47:11;;;;;;;9.25;3.60;;;15.20;99.90;;;;;;5045973;28;20037;-60
2023/05/24 10:49:40;;;;;;;13.20;3.95;;;15.30;99.90;;;;;;5044182;28;20302;-57
2023/05/24 10:52:07;;;;;;;9.93;3.65;;;15.20;99.90;;;;;;5042721;28;20025;-59
2023/05/24 10:54:35;;;;;;;10.77;4.60;;;15.10;99.90;;;;;;5042987;28;20383;-57
2023/05/24 10:57:04;;;;;;;14.98;4.25;;;15.00;99.90;;;;;;5043532;28;20028;-57
2023/05/24 10:59:36;;;;;;;13.85;3.35;;;15.00;99.90;;;;;;5043270;28;20069;-57
2023/05/24 11:02:12;;;;;;;12.13;3.60;;;15.00;99.90;;;;;;5045006;28;20426;-56
2023/05/24 11:04:42;;;;;;;8.38;3.38;;;15.10;99.90;;;;;;5042766;28;20052;-56
2023/05/24 11:07:12;;;;;;;8.25;3.58;;;15.20;99.90;;;;;;5044846;28;20028;-56
2023/05/24 11:09:45;;;;;;;7.90;3.70;;;15.30;99.90;;;;;;5039929;28;20364;-58
2023/05/24 11:12:16;;;;;;;12.00;4.13;;;15.30;99.90;;;;;;5045081;28;20021;-55
2023/05/24 11:14:48;;;;;;;6.72;3.25;;;15.20;99.90;;;;;;5043161;28;20025;-52
2023/05/24 11:17:14;;;;;;;10.07;3.15;;;15.40;99.90;;;;;;5044873;28;20067;-52
2023/05/24 11:19:49;;;;;;;7.47;3.30;;;15.50;99.90;;;;;;5039145;28;20440;-53
2023/05/24 11:22:14;;;;;;;11.48;3.67;;;15.60;99.90;;;;;;5039255;28;20480;-57
2023/05/24 11:24:41;;;;;;;9.50;3.00;;;15.80;99.90;;;;;;5042614;28;20049;-57
2023/05/24 11:27:09;;;;;;;7.18;3.50;;;15.80;99.90;;;;;;5040475;28;20035;-58
2023/05/24 11:29:44;;;;;;;5.75;3.35;;;16.10;99.90;;;;;;5043337;28;20020;-58
2023/05/24 11:32:18;;;;;;;13.70;3.10;;;16.20;99.90;;;;;;5045519;28;20021;-58
2023/05/24 11:34:47;;;;;;;8.23;2.72;;;16.20;99.90;;;;;;5045019;28;20181;-59
2023/05/24 11:37:14;;;;;;;11.75;3.70;;;16.10;99.90;;;;;;5046192;28;20032;-56
2023/05/24 11:39:40;;;;;;;10.95;3.95;;;16.10;99.90;;;;;;5045498;28;20036;-54
2023/05/24 11:42:07;;;;;;;15.88;4.80;;;16.00;99.90;;;;;;5044760;28;20037;-58
2023/05/24 11:44:36;;;;;;;9.95;4.03;;;15.90;99.90;;;;;;5044241;28;20039;-58
2023/05/24 11:47:04;;;;;;;12.65;3.47;;;15.80;99.90;;;;;;5043980;28;20025;-55
2023/05/24 11:49:29;;;;;;;7.78;3.28;;;15.60;99.90;;;;;;5043968;28;20075;-54
2023/05/24 11:51:57;;;;;;;9.77;3.35;;;15.60;99.90;;;;;;5044239;28;20021;-58
2023/05/24 11:54:24;;;;;;;13.40;4.35;;;15.60;99.90;;;;;;5044532;28;20051;-57
2023/05/24 11:56:51;;;;;;;11.27;4.72;;;15.60;99.90;;;;;;5043836;28;20279;-55
2023/05/24 11:59:24;;;;;;;7.47;4.10;;;15.60;99.90;;;;;;5044024;28;20199;-56
2023/05/24 12:02:10;;;;;;;5.93;3.38;;;15.70;99.90;;;;;;5042981;28;20033;-56
2023/05/24 12:04:36;;;;;;;;;;;15.80;99.90;;;;;;5035989;28;20583;-57
2023/05/24 12:07:02;;;;;;;8.13;3.30;;;15.80;99.90;;;;;;5040322;28;19989;-57
2023/05/24 12:09:28;;;;;;;8.32;3.83;;;15.90;99.90;;;;;;5044513;28;20017;-58
2023/05/24 12:11:54;;;;;;;7.85;3.08;;;15.70;99.90;;;;;;5042226;28;20044;-57
2023/05/24 12:14:27;;;;;;;6.60;2.85;;;15.80;99.90;;;;;;5040291;28;20070;-55
2023/05/24 12:16:55;;;;;;;8.80;3.40;;;15.80;99.90;;;;;;5041611;28;20176;-58
2023/05/24 12:19:21;;;;;;;7.95;3.50;;;15.70;99.90;;;;;;5022919;28;20609;-58
2023/05/24 12:21:48;;;;;;;9.30;3.42;;;15.80;99.90;;;;;;5038921;28;20044;-56
2023/05/24 12:24:18;;;;;;;6.38;3.05;;;15.80;99.90;;;;;;5041102;28;20031;-58
2023/05/24 12:26:47;;;;;;;13.27;3.55;;;15.80;99.90;;;;;;5038202;28;20096;-56
2023/05/24 12:29:13;;;;;;;8.43;3.50;;;16.00;99.90;;;;;;5041411;28;20124;-57
2023/05/24 12:31:43;;;;;;;8.82;4.45;;;16.10;99.90;;;;;;5023325;28;20040;-54
2023/05/24 12:34:19;;;;;;;8.90;3.83;;;16.20;99.90;;;;;;5041381;28;20098;-54
2023/05/24 12:36:47;;;;;;;6.50;3.60;;;16.30;99.90;;;;;;5035147;28;20031;-55
2023/05/24 12:39:29;;;;;;;8.00;3.83;;;16.40;99.90;;;;;;5042404;28;20124;-52
2023/05/24 12:41:55;;;;;;;7.93;3.50;;;16.50;99.90;;;;;;5002444;28;1101848;-56
2023/05/24 12:44:28;;;;;;;7.57;3.45;;;16.60;99.90;;;;;;5025144;28;20028;-57
2023/05/24 12:46:55;;;;;;;10.85;3.83;;;16.60;99.90;;;;;;5041395;28;20386;-55